CYUL/YUL METAR and TAF weather

Enter ICAO airport designator
Station Type Date Time Source
CYUL METAR 2022/08/16 20:00 UTC NOAA

CYUL 162000Z 05007KT 15SM BKN062 BKN090 BKN250 27/14 A3008 RMK SC6AC1CI1 CI TR SLP186 DENSITY ALT 1400FT


Station Type Date Time Source
CYUL Decoded METAR 2022/08/16 20:00 UTC NOAA

Montreal / Pierre Elliot Trudeau International Airport, Que, Canada (CYUL) 45-28N 073-45W 36M
Aug 16, 2022 - 04:00 PM EDT / 2022.08.16 2000 UTC
Wind: from the NE (050 degrees) at 8 MPH (7 KT):0
Visibility: 15 mile(s):0
Sky conditions: mostly cloudy
Temperature: 80 F (27 C)
Dew Point: 57 F (14 C)
Relative Humidity: 44%
Pressure (altimeter): 30.08 in. Hg (1018 hPa)
ob: CYUL 162000Z 05007KT 15SM BKN062 BKN090 BKN250 27/14 A3008 RMK SC6AC1CI1 CI TR SLP186 DENSITY ALT 1400FT
cycle: 20

Station Type Date Time Source
CYUL TAF 2022/08/16 20:09 UTC NOAA

TAF TAF
AMD CYUL 162006Z 1620/1718 06012KT P6SM SCT060 BKN240
TEMPO 1620/1624 P6SM -SHRA VCTS BKN060CB OVC240 PROB40 1620/1622 VRB15G25KT 3SM TSRA BR SCT030 BKN050CB
FM170100 06008KT P6SM SCT050 BKN240
FM171400 04010KT P6SM BKN060 OVC160
RMK NXT FCST BY 162100Z

Example: see airport list